Time;durP1;ratioP1;P1;durP2;ratioP2;P2;SDS_P1;SDS_P2;PMS_P1;PMS_P2;Temp;Humidity;BMP_temperature;BMP_pressure;BME280_temperature;BME280_humidity;BME280_pressure;Samples;Min_cycle;Max_cycle;Signal;HPM_P1;HPM_P2
2022/09/18 00:01:41;;;;;;;4.35;2.40;;;;;;;8.42;100.00;99322.75;6276320;22;20016;-86
2022/09/18 00:04:10;;;;;;;3.25;2.28;;;;;;;8.40;100.00;99339.00;6251761;22;20090;-86
2022/09/18 00:06:37;;;;;;;4.38;2.25;;;;;;;8.33;100.00;99317.09;6304474;22;20388;-86
2022/09/18 00:09:05;;;;;;;3.67;2.10;;;;;;;8.36;100.00;99334.78;6277657;22;20074;-86
2022/09/18 00:11:35;;;;;;;2.70;1.90;;;;;;;8.33;100.00;99341.94;6277247;22;20011;-85
2022/09/18 00:14:00;;;;;;;3.72;1.80;;;;;;;8.29;100.00;99344.03;6252153;22;20008;-86
2022/09/18 00:16:26;;;;;;;5.47;2.15;;;;;;;8.19;100.00;99333.28;6276960;22;20014;-86
2022/09/18 00:18:52;;;;;;;3.35;2.40;;;;;;;8.23;100.00;99354.06;6304942;22;20011;-86
2022/09/18 00:21:21;;;;;;;2.45;1.80;;;;;;;8.19;100.00;99349.84;6304272;22;20082;-86
2022/09/18 00:23:47;;;;;;;4.07;1.98;;;;;;;8.13;100.00;99346.84;6277432;22;20015;-86
2022/09/18 00:26:15;;;;;;;2.38;1.90;;;;;;;8.11;100.00;99356.78;6277516;22;20538;-86
2022/09/18 00:28:41;;;;;;;5.38;1.88;;;;;;;8.07;100.00;99348.59;6278881;22;20007;-85
2022/09/18 00:31:10;;;;;;;2.80;1.90;;;;;;;8.05;100.00;99345.47;6306828;22;19999;-86
2022/09/18 00:33:36;;;;;;;3.17;1.80;;;;;;;8.03;100.00;99341.63;6305832;22;20011;-86
2022/09/18 00:36:06;;;;;;;3.28;1.80;;;;;;;7.98;100.00;99345.69;6254281;22;20078;-86
2022/09/18 00:38:32;;;;;;;3.58;1.77;;;;;;;7.95;100.00;99346.56;6253809;22;20077;-87
2022/09/18 00:41:02;;;;;;;3.58;1.80;;;;;;;7.94;100.00;99345.78;6253291;22;20019;-86
2022/09/18 00:43:30;;;;;;;3.38;1.73;;;;;;;7.94;100.00;99345.78;6253957;22;20011;-86
2022/09/18 00:46:01;;;;;;;5.25;1.80;;;;;;;7.87;100.00;99339.69;6306368;22;20018;-86
2022/09/18 00:48:35;;;;;;;2.33;1.45;;;;;;;7.86;100.00;99341.66;6306219;22;20034;-86
2022/09/18 00:51:00;;;;;;;4.15;2.38;;;;;;;7.78;100.00;99337.53;6228836;22;20015;-86
2022/09/18 00:53:27;;;;;;;2.38;1.70;;;;;;;7.75;100.00;99334.88;6303496;22;20043;-86
2022/09/18 00:55:53;;;;;;;3.08;1.70;;;;;;;7.67;100.00;99336.28;6253677;22;20011;-86
2022/09/18 00:58:19;;;;;;;1.95;1.50;;;;;;;7.63;100.00;99341.88;6278602;22;20339;-86
2022/09/18 01:03:28;;;;;;;1.50;1.38;;;;;;;7.56;100.00;99325.53;6311436;22;20468;-86
2022/09/18 01:06:03;;;;;;;3.22;1.63;;;;;;;7.65;100.00;99344.19;6334424;22;20489;-89
2022/09/18 01:08:59;;;;;;;2.15;1.50;;;;;;;7.65;100.00;99344.19;6306646;22;20022;-86
2022/09/18 01:11:27;;;;;;;4.05;1.80;;;;;;;7.57;100.00;99342.84;6306648;22;20011;-88
2022/09/18 01:14:27;;;;;;;2.70;1.38;;;;;;;7.52;100.00;99346.91;6335422;22;20002;-88
2022/09/18 01:17:04;;;;;;;2.22;1.30;;;;;;;7.49;100.00;99358.78;6262441;22;20015;-88
2022/09/18 01:20:07;;;;;;;2.03;1.42;;;;;;;7.37;100.00;99349.22;6282927;22;20011;-87
2022/09/18 01:22:40;;;;;;;2.20;1.60;;;;;;;7.34;100.00;99352.88;6309851;22;20499;-88
2022/09/18 01:25:36;;;;;;;2.42;1.50;;;;;;;7.34;100.00;99365.88;6309956;22;20049;-87
2022/09/18 01:28:26;;;;;;;2.35;1.55;;;;;;;7.27;100.00;99363.28;6309657;22;20022;-88
2022/09/18 01:30:56;;;;;;;1.85;1.58;;;;;;;7.25;100.00;99372.00;6264917;22;20014;-87
2022/09/18 01:33:37;;;;;;;7.35;1.60;;;;;;;7.29;100.00;99372.69;6283903;22;20010;-88
2022/09/18 01:36:06;;;;;;;2.50;1.55;;;;;;;7.24;100.00;99358.66;6309954;22;20034;-87
2022/09/18 01:38:35;;;;;;;1.98;1.38;;;;;;;7.24;100.00;99386.97;6282592;22;20078;-88
2022/09/18 01:41:18;;;;;;;3.15;1.60;;;;;;;7.19;100.00;99406.81;6284908;22;20081;-87
2022/09/18 01:43:45;;;;;;;3.20;1.50;;;;;;;7.13;100.00;99380.94;6283906;22;20007;-87
2022/09/18 01:46:15;;;;;;;2.75;1.38;;;;;;;7.08;100.00;99383.47;6284107;22;20019;-88
2022/09/18 01:48:47;;;;;;;4.32;1.50;;;;;;;7.04;100.00;99373.25;6283874;22;20018;-88
2022/09/18 01:51:23;;;;;;;2.10;1.67;;;;;;;7.07;100.00;99388.19;6284632;22;20021;-88
2022/09/18 01:54:00;;;;;;;2.05;1.40;;;;;;;7.10;100.00;99390.09;6283646;22;20015;-88
2022/09/18 01:56:45;;;;;;;3.90;1.65;;;;;;;7.12;100.00;99387.66;6284153;22;20014;-87
2022/09/18 01:59:16;;;;;;;2.88;1.65;;;;;;;7.19;100.00;99395.00;6285223;22;20014;-87
2022/09/18 02:01:52;;;;;;;3.72;1.58;;;;;;;7.25;100.00;99398.81;6281406;22;20011;-88
2022/09/18 02:04:22;;;;;;;1.75;1.30;;;;;;;7.26;100.00;99401.13;6248769;22;20019;-88
2022/09/18 02:06:57;;;;;;;1.92;1.55;;;;;;;7.23;100.00;99401.22;6248390;22;20094;-88
2022/09/18 02:09:23;;;;;;;2.45;1.40;;;;;;;7.23;100.00;99402.00;6222677;22;20015;-87
2022/09/18 02:11:52;;;;;;;2.47;1.40;;;;;;;7.14;100.00;99399.06;6247776;22;20000;-88
2022/09/18 02:14:27;;;;;;;3.20;1.52;;;;;;;7.08;100.00;99411.78;6222637;22;20074;-88
2022/09/18 02:17:21;;;;;;;1.63;1.40;;;;;;;6.99;100.00;99397.84;6246683;22;20031;-88
2022/09/18 02:20:00;;;;;;;3.80;1.52;;;;;;;7.08;100.00;99408.28;6220930;22;20012;-88
2022/09/18 02:22:29;;;;;;;2.22;1.67;;;;;;;7.15;100.00;99428.19;6249295;22;20019;-87
2022/09/18 02:24:59;;;;;;;1.83;1.30;;;;;;;7.18;100.00;99421.81;6222885;22;20010;-88
2022/09/18 02:27:25;;;;;;;4.43;1.67;;;;;;;7.13;100.00;99414.03;6248747;22;20016;-88
2022/09/18 02:29:50;;;;;;;1.85;1.48;;;;;;;7.14;100.00;99404.56;6274889;22;19999;-88
2022/09/18 02:32:16;;;;;;;3.50;1.40;;;;;;;7.17;100.00;99420.25;6223405;22;20011;-88
2022/09/18 02:34:41;;;;;;;1.27;1.17;;;;;;;7.16;100.00;99406.91;6223081;22;20018;-87
2022/09/18 02:37:13;;;;;;;2.97;1.50;;;;;;;7.15;100.00;99419.16;6247111;22;20378;-87
2022/09/18 02:40:20;;;;;;;1.73;1.40;;;;;;;7.12;100.00;99418.00;6274797;22;20450;-88
2022/09/18 02:43:25;;;;;;;2.75;1.55;;;;;;;7.04;100.00;99424.88;6204033;22;20458;-87
2022/09/18 02:46:16;;;;;;;2.03;1.60;;;;;;;6.98;100.00;99429.38;6247530;22;20012;-88
2022/09/18 02:48:53;;;;;;;4.30;1.75;;;;;;;6.95;100.00;99424.72;6221485;22;20016;-88
2022/09/18 02:51:30;;;;;;;2.67;1.55;;;;;;;6.91;100.00;99424.00;6246583;22;20030;-88
2022/09/18 02:54:32;;;;;;;2.50;1.80;;;;;;;6.94;100.00;99420.38;6246608;22;20435;-88
2022/09/18 02:57:04;;;;;;;1.95;1.60;;;;;;;6.88;100.00;99419.31;6196526;22;20039;-87
2022/09/18 02:59:34;;;;;;;2.33;1.77;;;;;;;6.82;100.00;99412.78;6221064;22;20456;-86
2022/09/18 03:02:00;;;;;;;3.97;1.60;;;;;;;6.82;100.00;99426.56;6220657;22;20015;-88
2022/09/18 03:04:28;;;;;;;2.40;1.70;;;;;;;6.80;100.00;99428.94;6196122;22;20011;-88
2022/09/18 03:07:02;;;;;;;3.15;1.85;;;;;;;6.83;100.00;99444.66;6247897;22;20018;-87
2022/09/18 03:09:28;;;;;;;5.30;1.90;;;;;;;6.80;100.00;99451.00;6246409;22;20015;-87
2022/09/18 03:11:55;;;;;;;3.25;1.60;;;;;;;6.79;100.00;99452.22;6272061;22;20011;-88
2022/09/18 03:14:20;;;;;;;2.75;1.75;;;;;;;6.73;100.00;99462.97;6271246;22;20003;-88
2022/09/18 03:16:46;;;;;;;4.95;1.73;;;;;;;6.69;100.00;99455.97;6246571;22;20011;-88
2022/09/18 03:19:13;;;;;;;3.25;1.60;;;;;;;6.72;100.00;99438.56;6271994;22;20000;-87
2022/09/18 03:21:40;;;;;;;4.45;1.50;;;;;;;6.65;100.00;99445.03;6221998;22;20047;-88
2022/09/18 03:24:07;;;;;;;3.17;1.60;;;;;;;6.66;100.00;99456.81;6246904;22;20443;-87
2022/09/18 03:26:36;;;;;;;2.78;1.65;;;;;;;6.62;100.00;99439.59;6274028;22;20032;-90
2022/09/18 03:29:01;;;;;;;2.92;1.55;;;;;;;6.75;100.00;99460.56;6336574;22;20014;-91
2022/09/18 03:31:29;;;;;;;2.55;1.67;;;;;;;6.71;100.00;99461.84;6302268;22;20018;-93
2022/09/18 03:33:57;;;;;;;2.13;1.48;;;;;;;6.69;100.00;99462.25;6334078;22;20003;-90
2022/09/18 03:36:23;;;;;;;2.70;1.27;;;;;;;6.74;100.00;99464.53;6301468;22;20004;-93
2022/09/18 03:38:50;;;;;;;3.03;1.48;;;;;;;6.77;100.00;99457.38;6305920;22;20006;-91
2022/09/18 03:41:16;;;;;;;3.30;1.60;;;;;;;6.75;100.00;99460.56;6301507;22;20011;-82
2022/09/18 03:43:41;;;;;;;2.40;1.35;;;;;;;6.75;100.00;99465.31;6303612;22;20022;-82
2022/09/18 03:46:09;;;;;;;2.75;1.40;;;;;;;6.73;100.00;99462.97;6300862;22;20577;-82
2022/09/18 03:48:35;;;;;;;3.08;1.48;;;;;;;6.68;100.00;99468.19;6304773;22;20039;-82
2022/09/18 03:51:02;;;;;;;2.20;1.55;;;;;;;6.60;100.00;99458.50;6300911;22;20003;-82
2022/09/18 03:53:27;;;;;;;2.67;1.70;;;;;;;6.40;100.00;99467.53;6300868;22;20449;-82
2022/09/18 03:56:13;;;;;;;2.40;1.80;;;;;;;6.30;100.00;99468.53;6254556;22;20338;-82
2022/09/18 03:59:04;;;;;;;4.13;1.80;;;;;;;6.25;100.00;99458.00;6300085;22;20015;-82
2022/09/18 04:02:05;;;;;;;4.15;2.03;;;;;;;6.33;100.00;99466.91;6239119;23;20020;-84
2022/09/18 04:04:52;;;;;;;2.92;2.17;;;;;;;6.28;100.00;99473.69;6253230;22;20041;-82
2022/09/18 04:07:38;;;;;;;2.88;2.00;;;;;;;6.30;100.00;99479.56;6334210;22;20031;-82
2022/09/18 04:10:26;;;;;;;3.88;2.05;;;;;;;6.31;100.00;99474.81;6335582;22;20074;-82
2022/09/18 04:12:52;;;;;;;3.13;1.80;;;;;;;6.28;100.00;99470.91;6306927;22;20478;-82
2022/09/18 04:15:24;;;;;;;3.67;1.80;;;;;;;6.28;100.00;99464.63;6277992;22;20020;-82
2022/09/18 04:17:50;;;;;;;3.42;2.00;;;;;;;6.21;100.00;99473.81;6307283;22;20394;-82
2022/09/18 04:20:15;;;;;;;2.95;2.15;;;;;;;6.19;100.00;99473.44;6335273;22;20065;-82
2022/09/18 04:22:41;;;;;;;3.58;2.05;;;;;;;6.20;100.00;99477.75;6304821;22;20439;-82
2022/09/18 04:25:07;;;;;;;2.72;2.03;;;;;;;6.22;100.00;99477.34;6334907;22;20002;-82
2022/09/18 04:27:35;;;;;;;4.40;2.00;;;;;;;6.19;100.00;99484.47;6336039;22;20451;-82
2022/09/18 04:30:01;;;;;;;4.07;2.10;;;;;;;6.16;100.00;99479.78;6302613;22;20387;-82
2022/09/18 04:32:26;;;;;;;3.42;1.90;;;;;;;6.18;100.00;99488.44;6277428;22;20003;-82
2022/09/18 04:34:53;;;;;;;2.65;1.95;;;;;;;6.07;100.00;99482.31;6335831;22;20011;-82
2022/09/18 04:37:19;;;;;;;3.58;1.80;;;;;;;6.06;100.00;99487.06;6277396;22;20018;-82
2022/09/18 04:39:47;;;;;;;3.08;1.70;;;;;;;5.95;100.00;99480.94;6307339;22;20003;-82
2022/09/18 04:42:13;;;;;;;2.50;1.95;;;;;;;5.79;100.00;99488.25;6303565;22;20416;-92
2022/09/18 04:44:39;;;;;;;2.50;1.88;;;;;;;5.75;100.00;99493.03;6333281;22;20022;-90
2022/09/18 04:47:06;;;;;;;2.92;2.03;;;;;;;5.74;100.00;99497.00;6303016;22;20019;-89
2022/09/18 04:49:32;;;;;;;3.63;2.00;;;;;;;5.81;100.00;99497.69;6303876;22;20088;-90
2022/09/18 04:51:59;;;;;;;3.97;1.70;;;;;;;5.77;100.00;99499.69;6302832;22;20011;-91
2022/09/18 04:54:28;;;;;;;3.20;2.10;;;;;;;5.82;100.00;99503.97;6303202;22;20011;-89
2022/09/18 04:56:53;;;;;;;2.72;1.98;;;;;;;5.86;100.00;99499.19;6303492;22;20014;-91
2022/09/18 04:59:19;;;;;;;3.88;1.92;;;;;;;5.93;100.00;99510.09;6277636;22;20018;-89
2022/09/18 05:01:46;;;;;;;2.42;2.00;;;;;;;5.98;100.00;99507.66;6333260;22;20015;-81
2022/09/18 05:04:13;;;;;;;2.88;1.80;;;;;;;6.05;100.00;99512.25;6275950;22;20493;-81
2022/09/18 05:06:54;;;;;;;2.35;1.70;;;;;;;6.09;100.00;99502.75;6306707;22;20393;-82
2022/09/18 05:09:21;;;;;;;4.53;1.90;;;;;;;6.12;100.00;99503.88;6307919;22;20432;-82
2022/09/18 05:11:47;;;;;;;4.28;2.80;;;;;;;6.17;100.00;99508.13;6335128;22;20014;-81
2022/09/18 05:14:14;;;;;;;3.25;2.28;;;;;;;6.06;100.00;99502.81;6277127;22;20102;-82
2022/09/18 05:16:44;;;;;;;9.32;6.55;;;;;;;6.16;100.00;99512.06;6307261;22;20448;-82
2022/09/18 05:19:23;;;;;;;3.90;2.58;;;;;;;6.14;100.00;99515.25;6281473;22;20471;-90
2022/09/18 05:21:53;;;;;;;6.78;3.17;;;;;;;6.20;100.00;99513.56;6304547;22;20110;-90
2022/09/18 05:24:18;;;;;;;3.80;2.22;;;;;;;6.27;100.00;99527.19;6302910;22;20043;-90
2022/09/18 05:26:44;;;;;;;3.20;2.22;;;;;;;6.29;100.00;99527.56;6307184;22;20026;-90
2022/09/18 05:29:10;;;;;;;3.83;2.30;;;;;;;6.37;100.00;99509.72;6304452;22;20014;-90
2022/09/18 05:31:37;;;;;;;5.88;2.58;;;;;;;6.46;100.00;99525.69;6306135;22;20018;-89
2022/09/18 05:34:03;;;;;;;5.32;2.30;;;;;;;6.54;100.00;99516.88;6278321;22;20011;-91
2022/09/18 05:36:28;;;;;;;2.90;2.35;;;;;;;6.68;100.00;99526.06;6304237;22;20014;-82
2022/09/18 05:38:54;;;;;;;3.08;2.20;;;;;;;6.77;100.00;99520.78;6303091;22;20444;-82
2022/09/18 05:41:20;;;;;;;3.88;2.10;;;;;;;6.86;100.00;99529.25;6303739;22;20376;-82
2022/09/18 05:43:46;;;;;;;3.30;2.50;;;;;;;7.04;100.00;99533.22;6306488;22;20007;-82
2022/09/18 05:46:13;;;;;;;4.68;2.40;;;;;;;7.21;100.00;99533.25;6302073;22;20007;-82
2022/09/18 05:48:45;;;;;;;5.00;2.50;;;;;;;7.38;100.00;99530.13;6305558;22;20015;-81
2022/09/18 05:51:11;;;;;;;3.33;2.30;;;;;;;7.52;100.00;99525.50;6275311;22;20249;-83
2022/09/18 05:53:36;;;;;;;3.50;2.40;;;;;;;7.68;100.00;99536.59;6304587;22;20086;-82
2022/09/18 05:56:24;;;;;;;3.05;2.22;;;;;;;7.77;100.00;99539.50;6302848;22;20007;-88
2022/09/18 05:58:53;;;;;;;3.90;2.40;;;;;;;7.98;100.00;99539.00;6335806;22;20154;-90
2022/09/18 06:01:19;;;;;;;2.47;2.03;;;;;;;8.18;100.00;99525.88;6303190;22;20417;-89
2022/09/18 06:04:08;;;;;;;2.85;2.03;;;;;;;8.55;100.00;99540.38;6334968;22;20105;-90
2022/09/18 06:06:42;;;;;;;3.05;1.80;;;;;;;8.82;100.00;99538.81;6307450;22;20016;-90
2022/09/18 06:09:08;;;;;;;2.65;1.98;;;;;;;9.08;100.00;99531.38;6303996;22;20097;-89
2022/09/18 06:11:34;;;;;;;3.15;2.03;;;;;;;9.33;100.00;99536.97;6333288;22;20038;-90
2022/09/18 06:14:00;;;;;;;4.15;2.30;;;;;;;9.61;100.00;99540.09;6304260;22;20504;-82
2022/09/18 06:16:27;;;;;;;4.95;2.20;;;;;;;9.93;100.00;99539.88;6304290;22;20011;-83
2022/09/18 06:19:05;;;;;;;3.85;2.35;;;;;;;10.19;100.00;99535.88;6309074;22;20091;-83
2022/09/18 06:21:31;;;;;;;3.30;2.25;;;;;;;10.44;100.00;99548.13;6337348;22;20492;-83
2022/09/18 06:23:57;;;;;;;5.03;2.15;;;;;;;10.48;100.00;99541.22;6336537;22;20002;-83
2022/09/18 06:26:30;;;;;;;;;;;;;;;10.47;100.00;99545.25;6304465;22;20021;-83
2022/09/18 06:28:56;;;;;;;4.75;2.20;;;;;;;10.23;100.00;99558.69;6303802;22;19938;-82
2022/09/18 06:31:22;;;;;;;3.67;1.92;;;;;;;10.45;100.00;99566.31;6330027;22;20007;-82
2022/09/18 06:34:08;;;;;;;2.67;2.05;;;;;;;10.59;100.00;99552.75;6303780;22;20020;-91
2022/09/18 06:36:34;;;;;;;3.50;2.03;;;;;;;10.96;100.00;99558.63;6305180;22;20023;-83
2022/09/18 06:39:14;;;;;;;2.47;1.90;;;;;;;11.17;100.00;99557.81;6303209;22;20011;-82
2022/09/18 06:41:41;;;;;;;3.70;1.80;;;;;;;11.48;100.00;99557.88;6306629;22;20011;-83
2022/09/18 06:44:17;;;;;;;3.17;1.38;;;;;;;11.45;100.00;99567.88;6304187;22;20493;-81
2022/09/18 06:46:46;;;;;;;2.78;1.50;;;;;;;11.61;100.00;99569.66;6305152;22;20015;-83
2022/09/18 06:49:24;;;;;;;2.20;1.52;;;;;;;11.76;100.00;99564.38;6303497;22;20447;-83
2022/09/18 06:51:49;;;;;;;2.55;1.50;;;;;;;11.95;100.00;99555.63;6335854;22;20081;-85
2022/09/18 06:54:16;;;;;;;2.60;1.35;;;;;;;12.30;100.00;99574.88;6336273;22;20018;-91
2022/09/18 06:56:42;;;;;;;2.60;1.42;;;;;;;12.63;100.00;99573.88;6306084;22;20039;-92
2022/09/18 06:59:10;;;;;;;1.75;0.85;;;;;;;12.98;93.67;99574.34;6302253;22;20015;-91
2022/09/18 07:01:37;;;;;;;1.00;0.80;;;;;;;12.83;92.61;99578.22;6305544;22;20007;-90
2022/09/18 07:04:25;;;;;;;1.42;0.85;;;;;;;13.04;89.95;99571.72;6330909;22;20030;-91
2022/09/18 07:06:51;;;;;;;0.80;0.80;;;;;;;13.02;86.49;99574.22;6308326;22;20475;-90
2022/09/18 07:09:17;;;;;;;2.75;1.02;;;;;;;13.17;82.77;99564.00;6303249;22;20007;-92
2022/09/18 07:11:52;;;;;;;1.33;0.82;;;;;;;13.42;84.08;99571.25;6346406;22;20068;-83
2022/09/18 07:14:20;;;;;;;1.52;0.90;;;;;;;13.47;83.53;99576.16;6303051;22;20106;-88
2022/09/18 07:16:47;;;;;;;1.17;0.90;;;;;;;13.73;82.79;99566.19;6307945;22;20387;-89
2022/09/18 07:19:13;;;;;;;0.98;0.88;;;;;;;13.95;84.90;99569.50;6303411;22;20130;-89
2022/09/18 07:21:38;;;;;;;2.90;1.15;;;;;;;14.27;85.12;99575.56;6306412;22;20034;-88
2022/09/18 07:24:05;;;;;;;0.98;0.85;;;;;;;14.47;82.16;99578.59;6302992;22;20053;-90
2022/09/18 07:26:31;;;;;;;1.77;0.90;;;;;;;14.62;80.80;99587.00;6275416;22;20015;-89
2022/09/18 07:28:57;;;;;;;0.95;0.80;;;;;;;14.79;80.62;99577.75;6275245;22;20011;-89
2022/09/18 07:31:28;;;;;;;1.25;0.60;;;;;;;14.92;72.47;99589.41;6304478;22;20014;-83
2022/09/18 07:33:55;;;;;;;1.85;0.70;;;;;;;15.11;73.74;99583.69;6309204;22;20079;-90
2022/09/18 07:36:25;;;;;;;0.80;0.57;;;;;;;14.89;73.61;99581.22;6280631;22;20026;-91
2022/09/18 07:38:51;;;;;;;1.08;0.80;;;;;;;14.92;74.31;99585.88;6308028;22;20105;-90
2022/09/18 07:41:18;;;;;;;2.53;0.60;;;;;;;15.06;72.81;99596.28;6302562;22;20380;-91
2022/09/18 07:43:47;;;;;;;2.28;0.90;;;;;;;14.86;73.28;99594.13;6333470;22;20006;-90
2022/09/18 07:46:12;;;;;;;0.63;0.50;;;;;;;15.08;71.90;99595.81;6301649;22;20463;-90
2022/09/18 07:48:38;;;;;;;0.85;0.60;;;;;;;15.33;74.09;99598.06;6303925;22;20019;-95
2022/09/18 07:51:12;;;;;;;4.60;0.80;;;;;;;15.05;71.18;99588.38;6301428;22;20090;-84
2022/09/18 07:53:40;;;;;;;2.42;1.00;;;;;;;15.24;70.08;99598.16;6306001;22;20022;-84
2022/09/18 07:56:08;;;;;;;2.33;0.60;;;;;;;15.54;69.30;99602.56;6304123;22;19999;-84
2022/09/18 07:58:35;;;;;;;0.90;0.68;;;;;;;15.78;67.95;99589.25;6305311;22;20026;-85
2022/09/18 08:01:14;;;;;;;1.45;0.63;;;;;;;15.74;67.21;99588.66;6302004;22;20006;-83
2022/09/18 08:03:48;;;;;;;1.45;0.95;;;;;;;15.61;68.82;99587.44;6305881;22;20022;-83
2022/09/18 08:06:14;;;;;;;1.05;0.60;;;;;;;15.85;70.06;99594.44;6344521;22;20030;-83
2022/09/18 08:08:59;;;;;;;0.55;0.40;;;;;;;15.92;67.03;99592.53;6335207;22;20010;-83
2022/09/18 08:11:43;;;;;;;0.82;0.40;;;;;;;16.04;67.57;99588.63;6334779;22;20033;-83
2022/09/18 08:14:29;;;;;;;2.10;0.50;;;;;;;16.15;63.25;99591.59;6334170;22;20398;-83
2022/09/18 08:17:22;;;;;;;0.73;0.40;;;;;;;16.47;62.25;99587.75;6301530;22;20012;-83
2022/09/18 08:20:08;;;;;;;0.90;0.45;;;;;;;16.47;62.07;99584.94;6322806;22;20402;-84
2022/09/18 08:22:46;;;;;;;0.73;0.50;;;;;;;16.87;60.62;99586.25;6305625;22;20086;-82
2022/09/18 08:25:12;;;;;;;2.35;0.70;;;;;;;16.86;62.01;99590.31;6304825;22;20035;-82
2022/09/18 08:27:41;;;;;;;2.53;0.50;;;;;;;16.91;61.18;99589.59;6307056;22;20015;-89
2022/09/18 08:30:08;;;;;;;0.57;0.45;;;;;;;17.14;60.48;99589.41;6279615;22;20010;-82
2022/09/18 08:32:34;;;;;;;1.27;0.57;;;;;;;16.73;60.69;99590.66;6306913;22;20447;-82
2022/09/18 08:35:02;;;;;;;0.50;0.47;;;;;;;16.53;58.73;99591.41;6304960;22;20019;-81
2022/09/18 08:37:28;;;;;;;2.20;0.70;;;;;;;16.99;57.79;99593.50;6335931;22;20009;-81
2022/09/18 08:40:15;;;;;;;0.68;0.40;;;;;;;17.21;58.46;99588.19;6311977;22;19999;-82
2022/09/18 08:43:13;;;;;;;1.65;0.52;;;;;;;17.06;59.74;99587.50;6283326;22;20010;-82
2022/09/18 08:46:03;;;;;;;1.15;0.90;;;;;;;17.15;58.41;99573.31;6305046;22;20019;-88
2022/09/18 08:48:36;;;;;;;1.02;0.43;;;;;;;17.16;58.12;99591.69;6308182;22;20025;-82
2022/09/18 08:51:11;;;;;;;1.80;0.53;;;;;;;16.71;55.76;99591.16;6309395;22;20045;-82
2022/09/18 08:53:43;;;;;;;0.82;0.68;;;;;;;16.55;57.86;99586.06;6337319;22;20456;-82
2022/09/18 08:56:28;;;;;;;0.90;0.32;;;;;;;16.87;58.21;99586.25;6337440;22;20022;-82
2022/09/18 08:59:17;;;;;;;1.20;0.35;;;;;;;16.97;58.07;99590.44;6336774;22;20098;-82
2022/09/18 09:01:53;;;;;;;1.38;0.38;;;;;;;17.35;56.09;99592.91;6284514;22;20006;-82
2022/09/18 09:04:23;;;;;;;1.77;0.50;;;;;;;17.19;54.23;99601.91;6309172;22;20036;-82
2022/09/18 09:07:16;;;;;;;1.48;0.40;;;;;;;17.11;55.06;99595.97;6337966;22;20010;-82
2022/09/18 09:09:57;;;;;;;1.35;0.40;;;;;;;17.27;52.67;99605.06;6309337;22;20018;-82
2022/09/18 09:12:29;;;;;;;2.00;0.68;;;;;;;17.47;51.67;99605.78;6306224;22;20010;-81
2022/09/18 09:15:14;;;;;;;0.98;0.50;;;;;;;17.14;54.09;99597.81;6308296;22;20018;-82
2022/09/18 09:18:04;;;;;;;0.77;0.38;;;;;;;17.43;52.87;99596.81;6283525;22;20022;-82
2022/09/18 09:20:35;;;;;;;0.77;0.30;;;;;;;17.65;51.16;99594.25;6335895;22;20509;-82
2022/09/18 09:23:42;;;;;;;1.45;0.65;;;;;;;17.97;51.50;99588.66;6284068;22;20045;-82
2022/09/18 09:26:27;;;;;;;1.10;0.50;;;;;;;17.99;50.63;99584.09;6336523;22;20404;-82
2022/09/18 09:29:36;;;;;;;0.90;0.50;;;;;;;18.15;50.78;99591.09;6287729;22;20436;-81
2022/09/18 09:32:30;;;;;;;2.10;0.28;;;;;;;17.73;47.77;99602.22;6282109;22;20444;-82
2022/09/18 09:35:15;;;;;;;1.63;0.40;;;;;;;17.96;47.28;99601.13;6286875;22;20457;-81
2022/09/18 09:38:05;;;;;;;1.38;0.40;;;;;;;18.08;47.33;99603.53;6287163;22;20344;-82
2022/09/18 09:40:37;;;;;;;0.60;0.30;;;;;;;17.80;50.04;99608.16;6282051;22;20109;-81
2022/09/18 09:43:11;;;;;;;0.23;0.20;;;;;;;17.63;50.13;99601.63;6308935;22;20015;-82
2022/09/18 09:45:46;;;;;;;1.55;0.40;;;;;;;17.75;48.65;99594.88;6309976;22;20033;-90
2022/09/18 09:48:19;;;;;;;1.38;0.50;;;;;;;17.66;47.90;99597.84;6283810;22;20052;-89
2022/09/18 09:50:54;;;;;;;0.40;0.40;;;;;;;17.48;48.89;99595.31;6336839;22;20405;-88
2022/09/18 09:53:22;;;;;;;0.43;0.40;;;;;;;17.71;49.25;99597.88;6284523;22;20023;-90
2022/09/18 09:56:05;;;;;;;1.05;0.47;;;;;;;17.80;48.73;99601.75;6309631;22;20009;-88
2022/09/18 09:58:59;;;;;;;0.90;0.55;;;;;;;17.45;50.17;99602.72;6309412;22;20498;-89
2022/09/18 10:01:55;;;;;;;0.98;0.60;;;;;;;17.73;49.68;99588.97;6300178;22;20048;-90
2022/09/18 10:04:43;;;;;;;1.38;0.45;;;;;;;18.01;49.58;99608.84;6303271;22;20409;-82
2022/09/18 10:07:15;;;;;;;1.30;0.50;;;;;;;18.13;45.88;99594.38;6282510;22;20134;-90
2022/09/18 10:09:59;;;;;;;1.17;0.47;;;;;;;18.17;44.34;99606.16;6308991;22;20025;-91
2022/09/18 10:12:37;;;;;;;1.25;0.40;;;;;;;18.43;44.07;99606.09;6309220;22;20015;-89
2022/09/18 10:15:17;;;;;;;3.00;0.50;;;;;;;18.66;43.85;99598.56;6306501;22;20525;-89
2022/09/18 10:17:45;;;;;;;0.85;0.40;;;;;;;18.40;40.78;99612.69;6283170;22;20094;-91
2022/09/18 10:20:21;;;;;;;1.30;0.30;;;;;;;17.56;42.93;99610.44;6335847;22;19999;-91
2022/09/18 10:22:47;;;;;;;0.63;0.30;;;;;;;17.24;43.67;99615.22;6307061;22;20064;-82
2022/09/18 10:25:22;;;;;;;0.22;0.20;;;;;;;17.10;43.16;99616.09;6282370;22;20011;-91
2022/09/18 10:27:48;;;;;;;0.57;0.25;;;;;;;17.27;42.46;99597.41;6308508;22;20042;-90
2022/09/18 10:30:14;;;;;;;0.80;0.40;;;;;;;17.35;42.92;99615.31;6282257;22;20007;-90
2022/09/18 10:32:45;;;;;;;1.88;0.30;;;;;;;17.52;43.33;99593.84;6308916;22;20010;-89
2022/09/18 10:35:28;;;;;;;0.98;0.30;;;;;;;17.94;44.29;99603.69;6284449;22;20015;-89
2022/09/18 10:37:55;;;;;;;1.65;0.28;;;;;;;18.35;42.54;99602.22;6306374;22;20474;-92
2022/09/18 10:40:36;;;;;;;0.55;0.30;;;;;;;18.50;41.48;99605.63;6306985;22;19994;-83
2022/09/18 10:43:04;;;;;;;0.73;0.32;;;;;;;18.49;40.16;99595.63;6280566;22;20038;-82
2022/09/18 10:45:35;;;;;;;0.63;0.20;;;;;;;18.97;41.38;99609.69;6334723;22;20003;-82
2022/09/18 10:48:26;;;;;;;1.25;0.40;;;;;;;19.28;41.62;99605.22;6309351;22;20018;-83
2022/09/18 10:50:57;;;;;;;0.85;0.25;;;;;;;19.31;39.94;99602.16;6282754;22;20072;-80
2022/09/18 10:53:36;;;;;;;0.47;0.20;;;;;;;19.38;40.44;99618.53;6283714;22;20333;-80
2022/09/18 10:56:16;;;;;;;0.68;0.40;;;;;;;19.46;39.37;99616.78;6308525;22;20007;-80
2022/09/18 10:58:43;;;;;;;0.88;0.40;;;;;;;19.41;40.73;99613.94;6335742;22;20459;-81
2022/09/18 11:01:13;;;;;;;0.63;0.40;;;;;;;19.35;39.94;99608.28;6308244;22;20498;-80
2022/09/18 11:03:46;;;;;;;0.50;0.40;;;;;;;19.27;38.85;99618.50;6307510;22;20435;-91
2022/09/18 11:06:23;;;;;;;2.67;0.45;;;;;;;19.31;40.03;99621.06;6307634;22;20003;-89
2022/09/18 11:08:51;;;;;;;0.30;0.30;;;;;;;19.42;39.95;99610.63;6307411;22;20041;-91
2022/09/18 11:11:42;;;;;;;1.73;0.40;;;;;;;19.50;40.26;99611.69;6307151;22;20007;-91
2022/09/18 11:14:24;;;;;;;0.45;0.30;;;;;;;19.85;40.85;99618.91;6306945;22;20013;-92
2022/09/18 11:16:59;;;;;;;1.17;0.60;;;;;;;20.12;39.04;99618.13;6306533;22;20011;-90
2022/09/18 11:19:31;;;;;;;0.77;0.43;;;;;;;20.44;38.25;99608.13;6282301;22;20299;-89
2022/09/18 11:22:05;;;;;;;0.90;0.38;;;;;;;20.15;38.66;99591.75;6282012;22;20122;-82
2022/09/18 11:24:39;;;;;;;0.75;0.43;;;;;;;19.86;39.16;99615.56;6283930;22;20336;-82
2022/09/18 11:27:21;;;;;;;1.15;0.45;;;;;;;19.89;38.88;99613.78;6302426;22;20015;-82
2022/09/18 11:29:47;;;;;;;0.40;0.40;;;;;;;19.74;37.61;99608.38;6306891;22;20038;-83
2022/09/18 11:32:19;;;;;;;0.63;0.43;;;;;;;19.75;37.94;99603.53;6256383;22;20041;-82
2022/09/18 11:35:00;;;;;;;0.73;0.32;;;;;;;19.81;38.28;99601.50;6282491;22;20102;-82
2022/09/18 11:37:36;;;;;;;0.40;0.32;;;;;;;20.05;39.62;99598.16;6307251;22;20317;-82
2022/09/18 11:40:06;;;;;;;0.93;0.57;;;;;;;19.42;38.04;99602.19;6282024;22;20440;-89
2022/09/18 11:42:43;;;;;;;0.40;0.30;;;;;;;19.16;40.71;99604.41;6308425;22;20346;-90
2022/09/18 11:45:30;;;;;;;1.10;0.38;;;;;;;19.26;40.36;99619.00;6308012;22;20080;-90
2022/09/18 11:48:18;;;;;;;0.75;0.30;;;;;;;18.92;40.48;99609.69;6282530;22;20019;-90
2022/09/18 11:50:44;;;;;;;1.02;0.43;;;;;;;18.87;40.18;99621.66;6336211;22;20019;-90
2022/09/18 11:53:16;;;;;;;1.00;0.30;;;;;;;18.93;41.71;99609.16;6309370;22;20002;-90
2022/09/18 11:55:49;;;;;;;1.83;0.50;;;;;;;19.28;42.31;99608.78;6283218;22;20056;-91
2022/09/18 11:58:24;;;;;;;;;;;;;;;19.64;41.22;99611.97;6308315;22;20460;-82
2022/09/18 12:01:05;;;;;;;0.30;0.30;;;;;;;19.95;39.34;99603.28;6307874;22;19918;-91
2022/09/18 12:03:34;;;;;;;0.75;0.43;;;;;;;19.39;38.64;99605.22;6307755;22;20013;-91
2022/09/18 12:06:05;;;;;;;2.35;0.43;;;;;;;19.44;40.64;99601.69;6282991;22;20374;-91